createdAt,value
2022-08-07T00:00:25.047Z,22.00
2022-08-07T00:02:53.496Z,22.10
2022-08-07T00:05:23.564Z,22.10
2022-08-07T00:07:59.573Z,22.20
2022-08-07T00:10:30.611Z,22.20
2022-08-07T00:13:02.043Z,22.20
2022-08-07T00:15:37.698Z,22.20
2022-08-07T00:18:06.296Z,22.10
2022-08-07T00:20:34.250Z,22.10
2022-08-07T00:23:01.711Z,22.00
2022-08-07T00:25:29.015Z,22.00
2022-08-07T00:28:07.745Z,22.00
2022-08-07T00:30:34.905Z,22.00
2022-08-07T00:33:03.547Z,22.00
2022-08-07T00:35:31.012Z,22.00
2022-08-07T00:38:02.343Z,22.00
2022-08-07T00:40:38.963Z,21.90
2022-08-07T00:44:01.888Z,21.90
2022-08-07T00:46:01.802Z,21.80
2022-08-07T00:48:32.005Z,21.70
2022-08-07T00:51:01.350Z,21.70
2022-08-07T00:53:38.945Z,21.70
2022-08-07T00:56:16.150Z,21.70
2022-08-07T00:58:47.403Z,21.70
2022-08-07T01:01:18.525Z,21.60
2022-08-07T01:03:55.359Z,21.60
2022-08-07T01:06:25.375Z,21.60
2022-08-07T01:08:53.825Z,21.60
2022-08-07T01:12:04.372Z,21.60
2022-08-07T01:14:10.989Z,21.60
2022-08-07T01:16:38.586Z,21.50
2022-08-07T01:19:18.195Z,21.50
2022-08-07T01:21:49.165Z,21.50
2022-08-07T01:24:21.260Z,21.50
2022-08-07T01:26:54.037Z,21.50
2022-08-07T01:29:28.007Z,21.40
2022-08-07T01:31:59.652Z,21.40
2022-08-07T01:34:31.212Z,21.30
2022-08-07T01:36:58.816Z,21.30
2022-08-07T01:39:41.030Z,21.20
2022-08-07T01:42:40.150Z,21.20
2022-08-07T01:45:04.784Z,21.00
2022-08-07T01:48:17.762Z,20.80
2022-08-07T01:50:29.011Z,20.70
2022-08-07T01:52:59.066Z,20.60
2022-08-07T01:55:29.647Z,20.60
2022-08-07T01:58:27.012Z,20.60
2022-08-07T02:00:57.959Z,20.60
2022-08-07T02:03:48.931Z,20.70
2022-08-07T02:06:31.295Z,20.80
2022-08-07T02:09:03.602Z,20.80
2022-08-07T02:12:04.213Z,20.80
2022-08-07T02:14:36.232Z,20.80
2022-08-07T02:17:11.272Z,20.70
2022-08-07T02:20:07.057Z,20.70
2022-08-07T02:22:30.760Z,20.70
2022-08-07T02:24:58.899Z,20.70
2022-08-07T02:27:34.229Z,20.70
2022-08-07T02:30:07.134Z,20.80
2022-08-07T02:32:38.726Z,20.80
2022-08-07T02:35:10.900Z,20.80
2022-08-07T02:37:44.240Z,20.80
2022-08-07T02:40:33.270Z,20.70
2022-08-07T02:43:00.322Z,20.80
2022-08-07T02:45:58.028Z,20.80
2022-08-07T02:48:16.742Z,20.80
2022-08-07T02:50:51.179Z,20.80
2022-08-07T02:53:27.597Z,20.70
2022-08-07T02:56:03.623Z,20.70
2022-08-07T02:58:33.815Z,20.80
2022-08-07T03:01:03.282Z,20.80
2022-08-07T03:03:48.978Z,20.80
2022-08-07T03:06:32.166Z,20.70
2022-08-07T03:09:04.460Z,20.60
2022-08-07T03:14:22.473Z,20.40
2022-08-07T03:16:52.351Z,20.30
2022-08-07T03:19:20.807Z,19.90
2022-08-07T03:21:50.790Z,19.70
2022-08-07T03:24:26.818Z,19.50
2022-08-07T03:27:00.499Z,19.40
2022-08-07T03:29:51.077Z,19.20
2022-08-07T03:32:33.994Z,19.20
2022-08-07T03:35:18.364Z,19.30
2022-08-07T03:37:56.721Z,19.30
2022-08-07T03:40:27.569Z,19.50
2022-08-07T03:42:59.020Z,19.60
2022-08-07T03:45:30.711Z,19.70
2022-08-07T03:47:59.540Z,19.70
2022-08-07T03:50:28.714Z,19.80
2022-08-07T03:52:59.728Z,19.90
2022-08-07T03:55:58.466Z,19.90
2022-08-07T03:59:05.735Z,20.00
2022-08-07T04:01:07.420Z,20.00
2022-08-07T04:03:49.954Z,20.10
2022-08-07T04:06:37.349Z,20.10
2022-08-07T04:09:08.440Z,20.10
2022-08-07T04:12:27.985Z,20.10
2022-08-07T04:14:37.333Z,20.20
2022-08-07T04:17:05.523Z,20.20
2022-08-07T04:19:54.595Z,20.10
2022-08-07T04:22:29.172Z,20.20
2022-08-07T04:25:01.211Z,20.30
2022-08-07T04:27:35.704Z,20.30
2022-08-07T04:30:11.820Z,20.30
2022-08-07T04:32:44.676Z,20.30
2022-08-07T04:35:12.786Z,20.30
2022-08-07T04:38:03.398Z,20.40
2022-08-07T04:40:30.058Z,20.40
2022-08-07T04:43:02.124Z,20.50
2022-08-07T04:46:00.944Z,20.40
2022-08-07T04:48:44.730Z,20.40
2022-08-07T04:51:36.420Z,20.40
2022-08-07T04:54:33.722Z,20.50
2022-08-07T04:58:10.763Z,20.50
2022-08-07T05:00:30.452Z,20.50
2022-08-07T05:03:17.108Z,20.50
2022-08-07T05:06:20.071Z,20.50
2022-08-07T05:09:18.470Z,20.40
2022-08-07T05:12:12.023Z,20.40
2022-08-07T05:14:59.237Z,20.30
2022-08-07T05:17:51.776Z,20.20
2022-08-07T05:20:25.730Z,20.10
2022-08-07T05:22:58.282Z,20.10
2022-08-07T05:25:54.333Z,20.10
2022-08-07T05:28:22.732Z,20.10
2022-08-07T05:30:53.421Z,20.10
2022-08-07T05:33:21.647Z,20.10
2022-08-07T05:35:51.925Z,20.10
2022-08-07T05:39:00.607Z,20.10
2022-08-07T05:41:12.408Z,20.20
2022-08-07T05:43:43.458Z,20.10
2022-08-07T05:46:30.615Z,20.20
2022-08-07T05:48:59.401Z,20.20
2022-08-07T05:51:31.828Z,20.20
2022-08-07T05:54:13.701Z,20.30
2022-08-07T05:56:51.280Z,20.30
2022-08-07T05:59:21.196Z,20.30
2022-08-07T06:01:49.610Z,20.40
2022-08-07T06:04:21.476Z,20.40
2022-08-07T06:07:03.803Z,20.40
2022-08-07T06:10:03.875Z,20.40
2022-08-07T06:12:31.711Z,20.40
2022-08-07T06:15:05.767Z,20.50
2022-08-07T06:17:38.160Z,20.40
2022-08-07T06:20:12.411Z,20.40
2022-08-07T06:23:01.786Z,20.40
2022-08-07T06:25:34.913Z,20.40
2022-08-07T06:28:08.600Z,20.40
2022-08-07T06:30:37.938Z,20.40
2022-08-07T06:33:16.607Z,20.50
2022-08-07T06:35:48.229Z,20.50
2022-08-07T06:38:31.503Z,20.50
2022-08-07T06:41:00.524Z,20.50
2022-08-07T06:43:39.481Z,20.50
2022-08-07T06:46:12.515Z,20.40
2022-08-07T06:48:42.210Z,20.30
2022-08-07T06:51:31.152Z,20.30
2022-08-07T06:55:27.919Z,20.20
2022-08-07T06:56:55.154Z,20.20
2022-08-07T07:34:49.845Z,20.50
2022-08-07T07:37:44.219Z,20.50
2022-08-07T07:40:14.801Z,20.60
2022-08-07T07:42:51.042Z,20.80
2022-08-07T07:46:39.706Z,20.90
2022-08-07T07:48:34.761Z,21.10
2022-08-07T07:51:07.982Z,21.20
2022-08-07T07:53:51.830Z,21.30
2022-08-07T07:56:30.458Z,21.40
2022-08-07T07:59:01.618Z,21.50
2022-08-07T08:02:01.888Z,21.60
2022-08-07T08:04:20.170Z,21.60
2022-08-07T08:06:54.303Z,21.60
2022-08-07T08:09:25.195Z,21.50
2022-08-07T08:12:02.200Z,21.50
2022-08-07T08:14:36.644Z,21.60
2022-08-07T08:17:56.521Z,21.60
2022-08-07T08:20:17.470Z,21.70
2022-08-07T08:23:08.138Z,21.70
2022-08-07T08:25:58.264Z,21.80
2022-08-07T08:31:13.871Z,21.70
2022-08-07T08:33:49.680Z,21.90
2022-08-07T08:36:30.047Z,22.00
2022-08-07T08:39:02.118Z,22.10
2022-08-07T08:41:57.170Z,22.00
2022-08-07T08:44:44.958Z,22.00
2022-08-07T08:47:25.248Z,21.90
2022-08-07T08:50:02.715Z,21.90
2022-08-07T08:52:40.626Z,21.90
2022-08-07T08:55:55.064Z,22.00
2022-08-07T08:58:43.379Z,22.00
2022-08-07T09:01:40.174Z,22.10
2022-08-07T09:04:41.106Z,22.20
2022-08-07T09:07:22.952Z,22.30
2022-08-07T09:10:12.104Z,22.60
2022-08-07T09:12:57.945Z,22.50
2022-08-07T09:19:03.627Z,22.60
2022-08-07T09:22:10.031Z,22.80
2022-08-07T09:25:01.549Z,22.90
2022-08-07T09:28:02.904Z,22.90
2022-08-07T09:30:37.821Z,23.00
2022-08-07T09:33:53.075Z,23.00
2022-08-07T09:36:35.665Z,23.00
2022-08-07T09:39:53.954Z,23.20
2022-08-07T09:42:33.400Z,23.30
2022-08-07T09:47:27.670Z,23.40
2022-08-07T09:51:00.538Z,23.50
2022-08-07T09:53:41.353Z,23.50
2022-08-07T09:56:39.342Z,23.40
2022-08-07T09:59:44.630Z,23.50
2022-08-07T10:02:29.577Z,23.50
2022-08-07T10:05:12.682Z,23.40
2022-08-07T10:07:55.226Z,23.40
2022-08-07T10:11:16.786Z,23.30
2022-08-07T10:14:31.164Z,23.30
2022-08-07T10:17:16.673Z,23.40
2022-08-07T10:19:56.119Z,23.50
2022-08-07T10:22:32.211Z,23.20
2022-08-07T10:25:23.023Z,23.00
2022-08-07T10:28:20.020Z,22.70
2022-08-07T10:31:15.113Z,22.50
2022-08-07T10:34:17.909Z,22.40
2022-08-07T10:37:12.650Z,22.20
2022-08-07T10:40:03.431Z,22.30
2022-08-07T10:43:10.944Z,22.30
2022-08-07T10:45:44.376Z,22.30
2022-08-07T10:48:36.679Z,22.30
2022-08-07T10:51:16.831Z,22.20
2022-08-07T10:54:17.378Z,22.30
2022-08-07T10:56:48.242Z,22.40
2022-08-07T10:59:30.434Z,22.50
2022-08-07T11:02:35.904Z,22.60
2022-08-07T11:05:50.529Z,22.60
2022-08-07T11:08:39.000Z,22.60
2022-08-07T11:11:24.598Z,22.70
2022-08-07T11:14:45.144Z,22.70
2022-08-07T11:16:56.773Z,22.70
2022-08-07T11:19:46.415Z,23.00
2022-08-07T11:25:20.205Z,24.50
2022-08-07T11:28:03.283Z,24.40
2022-08-07T11:30:58.613Z,24.80
2022-08-07T11:34:00.398Z,24.70
2022-08-07T11:36:31.204Z,24.30
2022-08-07T11:39:19.779Z,24.00
2022-08-07T11:42:18.722Z,23.80
2022-08-07T11:44:58.219Z,23.80
2022-08-07T11:47:58.908Z,23.90
2022-08-07T11:50:36.892Z,24.30
2022-08-07T11:53:35.790Z,24.30
2022-08-07T11:56:33.461Z,24.20
2022-08-07T12:00:12.466Z,24.00
2022-08-07T12:02:59.829Z,24.00
2022-08-07T12:05:47.643Z,23.80
2022-08-07T12:08:35.095Z,23.70
2022-08-07T12:11:20.428Z,23.70
2022-08-07T12:13:55.505Z,23.70
2022-08-07T12:16:50.533Z,23.70
2022-08-07T12:19:35.714Z,23.80
2022-08-07T12:22:58.849Z,23.90
2022-08-07T12:26:23.543Z,24.10
2022-08-07T12:29:09.377Z,24.20
2022-08-07T12:32:01.768Z,24.40
2022-08-07T12:34:34.764Z,24.50
2022-08-07T12:37:08.146Z,24.70
2022-08-07T12:39:44.272Z,24.90
2022-08-07T12:42:27.037Z,25.00
2022-08-07T12:44:58.081Z,25.10
2022-08-07T12:47:55.725Z,25.10
2022-08-07T12:50:49.360Z,25.20
2022-08-07T12:54:37.158Z,25.20
2022-08-07T12:56:34.631Z,25.30
2022-08-07T12:59:08.358Z,25.40
2022-08-07T13:02:09.991Z,25.40
2022-08-07T13:05:02.379Z,25.40
2022-08-07T13:08:12.002Z,25.40
2022-08-07T13:11:08.585Z,25.40
2022-08-07T13:13:54.260Z,25.40
2022-08-07T13:16:42.474Z,25.40
2022-08-07T13:19:50.942Z,25.40
2022-08-07T13:22:52.603Z,25.50
2022-08-07T13:25:32.372Z,25.70
